Saint George, Maine
Current Conditions -  °F | °C
As of 7:55 PM on Saturday 22 Nov 2014 (Local Time) from KRKD Reporting Station
Broken Clouds Broken Clouds  
Wind Chill: 36°   Ceiling: 12000
Heat Index: 43°   Visibility: 10mi
Dew Point: 21°   Wind: 14mph
Humidity: 42%   Direction: 240°WSW
Pressure: 29.94"   Gusts: 24mph
Location:  44.02°N, 69.2°W
Report Text: KRKD 230055Z AUTO 24012G21KT 10SM SCT090 BKN120 06/M06 A2994 RMK AO1
Loading
Personal Weather Stations






























Interactive Weather Map New forecast layout! Learn more

10-Day Weather Forecast

Advertisements
Track Severe Weather on mobile